Time;durP1;ratioP1;P1;durP2;ratioP2;P2;SDS_P1;SDS_P2;PMS_P1;PMS_P2;Temp;Humidity;BMP_temperature;BMP_pressure;BME280_temperature;BME280_humidity;BME280_pressure;Samples;Min_cycle;Max_cycle;Signal;HPM_P1;HPM_P2
2022/11/11 00:01:47;;;;;;;38.37;35.40;;;;;;;12.44;100.00;102207.16;5034944;28;20460;-45
2022/11/11 00:04:16;;;;;;;39.67;37.10;;;;;;;12.40;100.00;102211.16;5034688;28;20856;-53
2022/11/11 00:06:44;;;;;;;38.33;35.93;;;;;;;12.35;100.00;102229.59;5035540;28;20436;-46
2022/11/11 00:09:12;;;;;;;39.40;36.23;;;;;;;12.31;100.00;102236.28;5035460;28;20845;-45
2022/11/11 00:11:39;;;;;;;38.73;36.10;;;;;;;12.31;100.00;102233.59;5034998;28;20498;-46
2022/11/11 00:14:07;;;;;;;39.50;36.50;;;;;;;12.30;100.00;102242.66;5035239;28;20432;-46
2022/11/11 00:25:06;;;;;;;39.90;36.50;;;;;;;12.33;100.00;102245.00;4995281;28;20831;-47
2022/11/11 00:27:34;;;;;;;38.87;35.77;;;;;;;12.35;100.00;102261.69;4995570;28;20474;-47
2022/11/11 00:30:02;;;;;;;38.70;35.90;;;;;;;12.33;100.00;102253.00;4995627;28;20434;-49
2022/11/11 00:32:32;;;;;;;41.13;37.07;;;;;;;12.35;100.00;102258.19;4995227;28;20505;-47
2022/11/11 00:37:48;;;;;;;39.97;36.60;;;;;;;12.33;100.00;102263.72;4995257;28;20438;-46
2022/11/11 00:40:16;;;;;;;39.33;36.33;;;;;;;12.37;100.00;102269.53;4995176;28;20474;-53
2022/11/11 00:42:44;;;;;;;38.50;35.50;;;;;;;12.34;100.00;102259.16;4995443;28;20874;-48
2022/11/11 00:45:12;;;;;;;38.83;36.10;;;;;;;12.37;100.00;102264.19;4995220;28;20466;-49
2022/11/11 00:53:15;;;;;;;40.47;37.27;;;;;;;12.41;100.00;102282.41;4995294;28;20433;-48
2022/11/11 00:55:48;;;;;;;40.33;37.47;;;;;;;12.41;100.00;102289.59;4994597;28;20465;-46
2022/11/11 00:58:16;;;;;;;40.70;37.67;;;;;;;12.41;100.00;102284.25;4994980;28;20440;-50
2022/11/11 01:00:44;;;;;;;39.33;36.77;;;;;;;12.41;100.00;102277.06;4994429;28;20898;-52
2022/11/11 01:03:11;;;;;;;39.33;36.63;;;;;;;12.39;100.00;102272.88;4994902;28;20496;-47
2022/11/11 01:05:40;;;;;;;38.47;35.90;;;;;;;12.41;100.00;102261.00;4994657;28;20538;-49
2022/11/11 01:08:08;;;;;;;39.03;35.70;;;;;;;12.39;100.00;102251.50;4995090;28;20433;-52
2022/11/11 01:10:42;;;;;;;38.60;36.33;;;;;;;12.41;100.00;102244.94;4994732;28;20438;-49
2022/11/11 01:13:16;;;;;;;39.97;36.93;;;;;;;12.42;100.00;102235.09;4994606;28;20438;-50
2022/11/11 01:15:46;;;;;;;40.00;37.03;;;;;;;12.39;100.00;102224.72;4994254;28;20460;-47
2022/11/11 01:18:16;;;;;;;39.43;36.50;;;;;;;12.41;100.00;102214.69;4994656;28;20442;-46
2022/11/11 01:20:46;;;;;;;39.97;37.20;;;;;;;12.39;100.00;102209.53;5002728;28;20481;-45
2022/11/11 01:23:14;;;;;;;40.83;36.83;;;;;;;12.41;100.00;102199.47;5029702;28;20998;-48
2022/11/11 01:25:42;;;;;;;38.13;35.57;;;;;;;12.42;100.00;102198.47;5033391;28;21003;-51
2022/11/11 01:28:10;;;;;;;38.23;35.30;;;;;;;12.42;100.00;102205.66;5034024;28;20833;-49
2022/11/11 01:30:38;;;;;;;39.13;36.37;;;;;;;12.41;100.00;102212.84;5033770;28;20433;-53
2022/11/11 01:33:05;;;;;;;40.80;37.50;;;;;;;12.42;100.00;102211.84;5033599;28;20432;-50
2022/11/11 01:35:38;;;;;;;38.17;35.40;;;;;;;12.39;100.00;102209.53;5033146;28;20475;-49
2022/11/11 01:38:08;;;;;;;40.77;37.43;;;;;;;12.39;100.00;102206.84;5033470;28;20926;-51
2022/11/11 01:40:43;;;;;;;39.93;36.77;;;;;;;12.41;100.00;102201.31;5033627;28;20507;-52
2022/11/11 01:43:18;;;;;;;38.90;36.40;;;;;;;12.39;100.00;102204.16;5033682;28;20805;-46
2022/11/11 01:45:53;;;;;;;39.97;37.27;;;;;;;12.39;100.00;102206.84;5033180;28;20459;-47
2022/11/11 01:51:16;;;;;;;40.53;37.40;;;;;;;12.35;100.00;102197.50;5033381;28;20479;-53
2022/11/11 01:53:47;;;;;;;39.20;36.60;;;;;;;12.35;100.00;102212.69;5033265;28;20424;-47
2022/11/11 01:56:15;;;;;;;39.43;36.73;;;;;;;12.36;100.00;102223.25;5032867;28;20526;-49
2022/11/11 01:58:42;;;;;;;39.83;36.73;;;;;;;12.33;100.00;102223.59;5033183;28;20443;-49
2022/11/11 02:01:10;;;;;;;40.17;37.17;;;;;;;12.35;100.00;102224.25;5032600;28;20873;-48
2022/11/11 02:03:40;;;;;;;38.90;35.90;;;;;;;12.35;100.00;102226.91;5032960;28;20436;-46
2022/11/11 02:06:07;;;;;;;40.37;37.43;;;;;;;12.35;100.00;102242.97;5032626;28;20468;-46
2022/11/11 02:08:37;;;;;;;40.50;37.23;;;;;;;12.36;100.00;102236.63;5032998;28;20926;-45
2022/11/11 02:11:12;;;;;;;41.00;37.17;;;;;;;12.36;100.00;102236.63;5032807;28;20471;-51
2022/11/11 02:16:28;;;;;;;39.90;36.60;;;;;;;12.33;100.00;102234.28;5032420;28;20471;-50
2022/11/11 02:18:56;;;;;;;38.97;36.30;;;;;;;12.32;100.00;102234.44;5032827;28;20444;-48
2022/11/11 02:21:28;;;;;;;40.23;37.00;;;;;;;12.31;100.00;102228.25;5018344;28;20481;-48
2022/11/11 02:24:03;;;;;;;40.43;36.20;;;;;;;12.32;100.00;102229.94;5025863;28;21104;-47
2022/11/11 02:26:32;;;;;;;39.53;36.43;;;;;;;12.33;100.00;102225.41;5032251;28;20455;-47
2022/11/11 02:29:03;;;;;;;40.63;37.30;;;;;;;12.32;100.00;102237.13;5032664;28;20428;-50
2022/11/11 02:31:32;;;;;;;38.67;35.90;;;;;;;12.32;100.00;102247.81;5057400;22;20783;-49
2022/11/11 02:34:00;;;;;;;40.23;36.83;;;;;;;12.30;100.00;102258.72;5032454;28;20571;-50
2022/11/11 02:36:28;;;;;;;40.33;36.70;;;;;;;12.31;100.00;102252.31;5031838;28;20464;-50
2022/11/11 02:38:56;;;;;;;39.27;36.37;;;;;;;12.30;100.00;102250.69;5032697;28;20489;-48
2022/11/11 02:44:10;;;;;;;40.27;37.33;;;;;;;12.28;100.00;102241.97;5031898;28;20523;-47
2022/11/11 02:46:38;;;;;;;38.93;36.40;;;;;;;12.29;100.00;102246.31;5032174;28;20472;-47
2022/11/11 02:49:05;;;;;;;40.27;37.40;;;;;;;12.29;100.00;102245.47;5032020;28;20436;-47
2022/11/11 02:51:33;;;;;;;39.23;36.83;;;;;;;12.31;100.00;102246.13;5032112;28;20586;-46
2022/11/11 02:54:01;;;;;;;40.23;37.10;;;;;;;12.29;100.00;102249.00;5032284;28;20429;-46
2022/11/11 02:59:16;;;;;;;40.07;37.00;;;;;;;12.30;100.00;102248.00;5032034;28;20428;-47
2022/11/11 03:01:43;;;;;;;40.17;37.27;;;;;;;12.33;100.00;102260.19;5031490;28;20486;-49
2022/11/11 03:04:11;;;;;;;40.50;37.10;;;;;;;12.32;100.00;102259.34;5031614;28;20619;-47
2022/11/11 03:06:39;;;;;;;40.27;36.67;;;;;;;12.32;100.00;102253.16;5031876;28;20474;-47
2022/11/11 03:09:07;;;;;;;40.60;37.00;;;;;;;12.32;100.00;102272.72;5031914;28;20478;-50
2022/11/11 03:11:37;;;;;;;40.00;36.90;;;;;;;12.33;100.00;102282.44;5031529;28;20459;-48
2022/11/11 03:14:05;;;;;;;38.70;35.97;;;;;;;12.33;100.00;102279.75;5031585;28;20894;-48
2022/11/11 03:19:18;;;;;;;41.43;38.50;;;;;;;12.32;100.00;102269.22;5031836;28;20463;-50
2022/11/11 03:21:46;;;;;;;41.53;38.10;;;;;;;12.32;100.00;102261.19;5039437;28;20537;-50
2022/11/11 03:27:20;;;;;;;40.40;37.13;;;;;;;12.31;100.00;102264.88;5051733;28;20431;-49
2022/11/11 03:29:48;;;;;;;42.70;38.60;;;;;;;12.29;100.00;102259.69;5051602;28;20557;-46
2022/11/11 03:32:15;;;;;;;40.67;37.37;;;;;;;12.27;100.00;102269.75;5051137;28;20462;-46
2022/11/11 03:34:43;;;;;;;43.03;38.63;;;;;;;12.27;100.00;102263.56;5050926;28;20474;-46
2022/11/11 03:39:56;;;;;;;41.97;38.80;;;;;;;12.24;100.00;102267.41;5051559;28;20951;-49
2022/11/11 03:42:25;;;;;;;41.87;37.83;;;;;;;12.24;100.00;102278.09;5051129;28;20475;-47
2022/11/11 03:44:53;;;;;;;41.93;38.60;;;;;;;12.20;100.00;102266.06;5050927;28;20463;-47
2022/11/11 03:47:20;;;;;;;43.20;39.07;;;;;;;12.22;100.00;102264.06;5051206;28;20439;-47
2022/11/11 03:49:48;;;;;;;44.67;40.23;;;;;;;12.21;100.00;102262.41;5051604;28;20434;-50
2022/11/11 03:52:16;;;;;;;41.67;38.47;;;;;;;12.23;100.00;102270.25;5051043;28;21033;-47
2022/11/11 03:54:43;;;;;;;40.97;38.13;;;;;;;12.23;100.00;102265.72;5050610;28;21056;-47
2022/11/11 03:59:57;;;;;;;43.47;39.67;;;;;;;12.22;100.00;102269.41;5051143;28;20486;-46
2022/11/11 04:10:40;;;;;;;41.87;38.63;;;;;;;12.22;100.00;102272.06;5051044;28;21001;-52
2022/11/11 04:16:07;;;;;;;42.80;39.50;;;;;;;12.20;100.00;102266.06;5050665;28;20490;-48
2022/11/11 04:26:48;;;;;;;43.33;39.53;;;;;;;12.22;100.00;102266.72;5053665;28;20793;-49
2022/11/11 04:29:30;;;;;;;42.67;38.80;;;;;;;12.23;100.00;102264.88;5054997;28;20443;-47
2022/11/11 04:34:48;;;;;;;44.80;41.30;;;;;;;12.26;100.00;102261.88;5054284;28;20450;-47
2022/11/11 04:37:17;;;;;;;43.10;40.20;;;;;;;12.25;100.00;102265.53;5054481;28;20496;-48
2022/11/11 04:42:31;;;;;;;43.60;39.93;;;;;;;12.23;100.00;102262.22;5054138;28;21060;-48
2022/11/11 04:47:56;;;;;;;43.93;40.27;;;;;;;12.21;100.00;102265.88;5054308;28;20431;-46
2022/11/11 04:50:24;;;;;;;43.53;40.50;;;;;;;12.23;100.00;102270.25;5054335;28;20990;-46
2022/11/11 04:52:52;;;;;;;44.73;41.13;;;;;;;12.23;100.00;102268.41;5054136;28;20856;-49
2022/11/11 04:58:05;;;;;;;43.50;39.70;;;;;;;12.22;100.00;102266.72;5054109;28;20427;-47
2022/11/11 05:00:32;;;;;;;44.70;40.97;;;;;;;12.24;100.00;102270.09;5054303;28;20434;-46
2022/11/11 05:03:15;;;;;;;43.03;39.57;;;;;;;12.25;100.00;102273.56;5053927;28;20529;-46
2022/11/11 05:11:16;;;;;;;43.53;40.23;;;;;;;12.25;100.00;102273.56;5053948;28;20431;-46
2022/11/11 05:22:11;;;;;;;43.97;40.17;;;;;;;12.21;100.00;102273.09;5042100;28;20553;-46
2022/11/11 05:27:23;;;;;;;45.30;41.10;;;;;;;12.18;100.00;102282.28;5053591;28;20488;-48
2022/11/11 05:29:51;;;;;;;44.77;40.77;;;;;;;12.20;100.00;102292.81;5053785;28;20435;-45
2022/11/11 05:32:20;;;;;;;43.63;39.73;;;;;;;12.20;100.00;102272.25;5053069;28;21130;-47
2022/11/11 05:34:49;;;;;;;45.13;41.30;;;;;;;12.20;100.00;102282.13;5052947;28;20454;-46
2022/11/11 05:37:17;;;;;;;45.47;41.47;;;;;;;12.19;100.00;102291.97;5053461;28;20466;-48
2022/11/11 05:39:45;;;;;;;42.67;39.17;;;;;;;12.20;100.00;102293.66;5053247;28;20489;-50
2022/11/11 05:42:13;;;;;;;43.10;40.20;;;;;;;12.21;100.00;102297.16;5052955;28;20478;-47
2022/11/11 05:44:40;;;;;;;44.13;40.73;;;;;;;12.23;100.00;102303.19;5052922;28;20512;-47
2022/11/11 05:47:08;;;;;;;45.37;41.03;;;;;;;12.23;100.00;102311.19;5053433;28;20428;-54
2022/11/11 05:49:36;;;;;;;44.60;40.90;;;;;;;12.23;100.00;102310.34;5053268;28;20423;-48
2022/11/11 05:52:06;;;;;;;44.83;41.03;;;;;;;12.24;100.00;102309.38;5052865;28;20497;-47
2022/11/11 05:54:33;;;;;;;43.77;40.40;;;;;;;12.23;100.00;102308.53;5052818;28;20455;-48
2022/11/11 05:57:02;;;;;;;43.63;40.10;;;;;;;12.25;100.00;102309.19;5053259;28;20432;-49
2022/11/11 05:59:30;;;;;;;43.10;39.70;;;;;;;12.25;100.00;102333.25;5053064;28;20489;-51
2022/11/11 06:01:58;;;;;;;45.50;41.93;;;;;;;12.24;100.00;102328.09;5052748;28;20479;-48
2022/11/11 06:04:26;;;;;;;45.03;41.70;;;;;;;12.21;100.00;102327.41;5052500;28;20940;-48
2022/11/11 06:06:53;;;;;;;45.97;41.40;;;;;;;12.19;100.00;102333.94;5052732;28;20442;-49
2022/11/11 06:09:22;;;;;;;43.37;40.30;;;;;;;12.20;100.00;102327.59;5053047;28;20466;-48
2022/11/11 06:11:50;;;;;;;45.70;41.73;;;;;;;12.22;100.00;102336.25;5052474;28;20884;-52
2022/11/11 06:14:18;;;;;;;45.73;41.83;;;;;;;12.25;100.00;102335.09;5052526;28;20502;-49
2022/11/11 06:16:45;;;;;;;47.80;43.63;;;;;;;12.21;100.00;102334.63;5052752;28;20431;-47
2022/11/11 06:19:13;;;;;;;45.97;42.10;;;;;;;12.18;100.00;102329.59;5052572;28;20427;-47
2022/11/11 06:22:00;;;;;;;44.50;40.10;;;;;;;12.18;100.00;102326.94;5044086;28;20459;-48
2022/11/11 06:24:29;;;;;;;44.83;41.53;;;;;;;12.20;100.00;102338.28;5049928;28;20427;-47
2022/11/11 06:26:56;;;;;;;45.60;41.00;;;;;;;12.21;100.00;102332.75;5052508;28;20453;-50
2022/11/11 06:29:23;;;;;;;45.10;41.20;;;;;;;12.19;100.00;102329.41;5052419;28;20431;-48
2022/11/11 06:31:51;;;;;;;44.87;40.83;;;;;;;12.20;100.00;102336.44;5051915;28;20463;-47
2022/11/11 06:34:19;;;;;;;46.23;42.30;;;;;;;12.19;100.00;102339.28;5052085;28;20991;-48
2022/11/11 06:36:46;;;;;;;45.87;41.90;;;;;;;12.17;100.00;102350.16;5052401;28;20774;-46
2022/11/11 06:39:14;;;;;;;47.67;42.90;;;;;;;12.16;100.00;102355.66;5052182;28;20465;-51
2022/11/11 06:41:43;;;;;;;43.70;39.90;;;;;;;12.15;100.00;102348.66;5051919;28;20502;-49
2022/11/11 06:44:10;;;;;;;43.83;40.60;;;;;;;12.16;100.00;102355.66;5051672;28;20496;-47
2022/11/11 06:46:38;;;;;;;43.33;40.10;;;;;;;12.14;100.00;102361.19;5051573;28;20440;-47
2022/11/11 06:49:05;;;;;;;45.13;41.33;;;;;;;12.13;100.00;102358.66;5052143;28;20427;-48
2022/11/11 06:51:33;;;;;;;44.90;41.00;;;;;;;12.15;100.00;102364.69;5051983;28;20455;-48
2022/11/11 06:54:01;;;;;;;44.77;40.37;;;;;;;12.13;100.00;102361.34;5052135;28;20427;-48
2022/11/11 06:56:28;;;;;;;44.73;40.87;;;;;;;12.11;100.00;102361.53;5051400;28;20463;-46
2022/11/11 06:58:57;;;;;;;45.80;41.43;;;;;;;12.10;100.00;102373.22;5051813;28;20435;-46
2022/11/11 07:01:25;;;;;;;45.33;41.57;;;;;;;12.12;100.00;102384.59;5051692;28;21112;-49
2022/11/11 07:03:52;;;;;;;44.77;41.20;;;;;;;12.12;100.00;102384.59;5051831;28;20518;-48
2022/11/11 07:06:20;;;;;;;45.97;42.17;;;;;;;12.08;100.00;102383.25;5051283;28;20459;-46
2022/11/11 07:08:47;;;;;;;45.90;42.20;;;;;;;12.09;100.00;102392.13;5051853;28;20427;-46
2022/11/11 07:11:15;;;;;;;46.63;42.60;;;;;;;12.07;100.00;102399.44;5051327;28;20435;-48
2022/11/11 07:13:45;;;;;;;47.00;42.80;;;;;;;12.09;100.00;102389.44;5051715;28;20419;-46
2022/11/11 07:16:14;;;;;;;47.33;43.47;;;;;;;12.08;100.00;102401.13;5051113;28;21169;-49
2022/11/11 07:18:42;;;;;;;46.90;43.17;;;;;;;12.08;100.00;102383.25;5051826;28;20843;-47
2022/11/11 07:21:09;;;;;;;45.53;41.90;;;;;;;12.08;100.00;102391.28;5045908;28;20968;-48
2022/11/11 07:23:37;;;;;;;47.93;43.80;;;;;;;12.10;100.00;102399.13;5043291;28;20524;-47
2022/11/11 07:26:05;;;;;;;46.33;42.43;;;;;;;12.10;100.00;102397.28;5051236;28;20463;-46
2022/11/11 07:28:32;;;;;;;46.17;42.33;;;;;;;12.09;100.00;102392.97;5051635;28;20439;-48
2022/11/11 07:31:00;;;;;;;47.27;43.67;;;;;;;12.07;100.00;102405.63;5051501;28;20439;-47
2022/11/11 07:33:29;;;;;;;47.87;43.20;;;;;;;12.11;100.00;102403.47;5051326;28;20537;-50
2022/11/11 07:35:56;;;;;;;48.27;43.67;;;;;;;12.08;100.00;102404.66;5050996;28;20459;-53
2022/11/11 07:38:24;;;;;;;47.80;43.40;;;;;;;12.10;100.00;102407.13;5051370;28;20427;-49
2022/11/11 07:40:52;;;;;;;47.23;43.30;;;;;;;12.12;100.00;102415.84;5051379;28;20447;-53
2022/11/11 07:43:20;;;;;;;47.20;43.57;;;;;;;12.14;100.00;102419.19;5051235;28;20475;-47
2022/11/11 07:45:47;;;;;;;48.03;43.97;;;;;;;12.13;100.00;102417.50;5051016;28;20474;-47
2022/11/11 07:48:15;;;;;;;48.37;44.40;;;;;;;12.13;100.00;102429.03;5051325;28;20431;-47
2022/11/11 07:50:44;;;;;;;47.63;44.10;;;;;;;12.14;100.00;102421.84;5051342;28;20477;-52
2022/11/11 07:53:11;;;;;;;48.53;44.80;;;;;;;12.12;100.00;102418.53;5051170;28;20477;-53
2022/11/11 07:55:39;;;;;;;47.53;43.40;;;;;;;12.13;100.00;102425.53;5050901;28;20463;-51
2022/11/11 07:58:07;;;;;;;50.87;45.90;;;;;;;12.12;100.00;102432.72;5051859;28;20454;-51
2022/11/11 08:00:34;;;;;;;49.87;45.17;;;;;;;12.15;100.00;102426.22;5055385;28;20442;-49
2022/11/11 08:03:02;;;;;;;48.80;44.90;;;;;;;12.15;100.00;102427.06;5055064;28;20478;-52
2022/11/11 08:05:35;;;;;;;50.30;45.80;;;;;;;12.19;100.00;102435.56;5054565;28;20475;-47
2022/11/11 08:08:05;;;;;;;52.07;47.10;;;;;;;12.18;100.00;102439.25;5055438;28;20427;-48
2022/11/11 08:10:34;;;;;;;50.87;46.30;;;;;;;12.14;100.00;102441.41;5055251;28;21133;-52
2022/11/11 08:15:47;;;;;;;50.37;46.63;;;;;;;12.17;100.00;102440.25;5054551;28;20478;-51
2022/11/11 08:18:15;;;;;;;51.40;46.90;;;;;;;12.17;100.00;102434.91;5055044;28;20436;-50
2022/11/11 08:20:42;;;;;;;52.37;47.50;;;;;;;12.17;100.00;102441.09;5049660;28;20507;-48
2022/11/11 08:23:21;;;;;;;50.97;46.70;;;;;;;12.18;100.00;102440.06;5046544;28;20475;-47
2022/11/11 08:26:08;;;;;;;50.43;46.43;;;;;;;12.18;100.00;102447.28;5054370;28;20486;-47
2022/11/11 08:28:36;;;;;;;52.17;47.77;;;;;;;12.18;100.00;102452.63;5054660;28;20434;-49
2022/11/11 08:31:03;;;;;;;50.00;45.80;;;;;;;12.22;100.00;102456.63;5054506;28;20492;-48
2022/11/11 08:33:31;;;;;;;49.90;45.97;;;;;;;12.20;100.00;102455.97;5054716;28;20439;-47
2022/11/11 08:36:11;;;;;;;52.30;47.43;;;;;;;12.17;100.00;102456.28;5054211;28;20988;-48
2022/11/11 08:38:48;;;;;;;50.37;46.20;;;;;;;12.17;100.00;102441.09;5054657;28;20423;-49
2022/11/11 08:41:15;;;;;;;49.63;44.83;;;;;;;12.20;100.00;102474.69;5054263;28;21118;-51
2022/11/11 08:43:43;;;;;;;49.63;45.30;;;;;;;12.23;100.00;102465.50;5054412;28;20471;-50
2022/11/11 08:46:11;;;;;;;50.23;46.10;;;;;;;12.25;100.00;102460.81;5074780;22;20484;-46
2022/11/11 08:48:39;;;;;;;51.83;46.97;;;;;;;12.24;100.00;102457.31;5034528;28;20429;-47
2022/11/11 08:51:07;;;;;;;50.77;45.43;;;;;;;12.25;100.00;102471.50;5034921;28;20770;-47
2022/11/11 08:53:34;;;;;;;49.93;45.63;;;;;;;12.27;100.00;102473.03;5034373;28;20428;-47
2022/11/11 08:56:03;;;;;;;52.03;47.73;;;;;;;12.30;100.00;102472.69;5033981;28;20833;-46
2022/11/11 08:58:31;;;;;;;50.00;46.40;;;;;;;12.28;100.00;102477.38;5034443;28;20938;-46
2022/11/11 09:01:00;;;;;;;49.90;45.67;;;;;;;12.29;100.00;102475.53;5034393;28;20440;-49
2022/11/11 09:03:29;;;;;;;51.40;46.90;;;;;;;12.32;100.00;102480.56;5034305;28;20973;-46
2022/11/11 09:05:56;;;;;;;50.60;46.93;;;;;;;12.34;100.00;102490.06;5033703;28;20471;-46
2022/11/11 09:08:24;;;;;;;50.23;46.50;;;;;;;12.35;100.00;102482.91;5034536;28;20459;-45
2022/11/11 09:10:52;;;;;;;49.83;46.30;;;;;;;12.39;100.00;102490.44;5033524;28;20459;-46
2022/11/11 09:13:21;;;;;;;51.10;47.20;;;;;;;12.39;100.00;102497.63;5034315;28;20893;-44
2022/11/11 09:15:49;;;;;;;52.77;48.97;;;;;;;12.40;100.00;102497.44;5033507;28;20464;-47
2022/11/11 09:18:16;;;;;;;51.00;47.17;;;;;;;12.41;100.00;102509.00;5034074;28;20987;-47
2022/11/11 09:20:44;;;;;;;54.53;49.30;;;;;;;12.40;100.00;102508.16;5023475;28;20436;-47
2022/11/11 09:23:12;;;;;;;52.97;48.93;;;;;;;12.45;100.00;102513.84;5025830;28;20428;-46
2022/11/11 09:25:39;;;;;;;53.53;48.70;;;;;;;12.45;100.00;102521.88;5033369;28;20472;-47
2022/11/11 09:28:07;;;;;;;52.10;48.20;;;;;;;12.44;100.00;102528.22;5034003;28;20436;-45
2022/11/11 09:30:36;;;;;;;53.90;49.50;;;;;;;12.45;100.00;102532.59;5033886;28;20432;-47
2022/11/11 09:33:04;;;;;;;53.30;48.90;;;;;;;12.43;100.00;102523.88;5033707;28;20428;-46
2022/11/11 09:35:32;;;;;;;53.27;48.70;;;;;;;12.41;100.00;102536.59;5033265;28;20984;-47
2022/11/11 09:38:01;;;;;;;53.03;48.93;;;;;;;12.46;100.00;102542.25;5033695;28;20460;-49
2022/11/11 09:40:46;;;;;;;54.37;49.73;;;;;;;12.45;100.00;102539.78;5033762;28;20432;-47
2022/11/11 09:43:23;;;;;;;55.27;50.23;;;;;;;12.45;100.00;102550.47;5033605;28;20432;-45
2022/11/11 09:46:16;;;;;;;54.67;49.97;;;;;;;12.38;100.00;102546.78;5033055;28;20992;-49
2022/11/11 09:49:33;;;;;;;55.77;50.70;;;;;;;12.42;100.00;102546.28;5030743;28;20793;-45
2022/11/11 09:52:05;;;;;;;54.67;50.07;;;;;;;12.45;100.00;102562.03;5013765;28;20467;-45
2022/11/11 09:54:37;;;;;;;55.33;50.77;;;;;;;12.45;100.00;102558.50;5033166;28;20527;-46
2022/11/11 09:57:12;;;;;;;54.50;49.60;;;;;;;12.44;100.00;102560.34;5033655;28;20498;-47
2022/11/11 09:59:45;;;;;;;57.07;52.23;;;;;;;12.40;100.00;102566.16;5033454;28;20509;-49
2022/11/11 10:02:26;;;;;;;56.63;51.83;;;;;;;12.43;100.00;102563.16;5032994;28;20428;-46
2022/11/11 10:05:00;;;;;;;55.03;50.20;;;;;;;12.43;100.00;102558.66;5032839;28;20464;-44
2022/11/11 10:07:36;;;;;;;56.27;51.00;;;;;;;12.47;100.00;102553.81;5033240;28;20526;-47
2022/11/11 10:10:15;;;;;;;56.50;51.40;;;;;;;12.47;100.00;102562.69;5033242;28;20440;-47
2022/11/11 10:12:49;;;;;;;55.80;50.77;;;;;;;12.49;100.00;102563.34;5033347;28;20462;-45
2022/11/11 10:15:20;;;;;;;55.40;50.33;;;;;;;12.50;100.00;102554.31;5032537;28;20467;-45
2022/11/11 10:18:10;;;;;;;56.37;51.90;;;;;;;12.47;100.00;102564.50;5032981;28;20861;-47
2022/11/11 10:20:52;;;;;;;55.87;50.87;;;;;;;12.39;100.00;102554.66;5027532;28;20436;-47
2022/11/11 10:23:24;;;;;;;53.17;48.67;;;;;;;12.45;100.00;102555.81;5023813;28;20428;-47
2022/11/11 10:25:54;;;;;;;55.63;50.90;;;;;;;12.51;100.00;102561.38;5032323;28;20464;-46
2022/11/11 10:28:25;;;;;;;53.30;48.50;;;;;;;12.53;100.00;102555.81;5032768;28;21102;-46
2022/11/11 10:30:54;;;;;;;53.20;48.57;;;;;;;12.53;100.00;102563.84;5032670;28;20574;-46
2022/11/11 10:33:27;;;;;;;55.17;50.10;;;;;;;12.53;100.00;102561.19;5032739;28;20448;-46
2022/11/11 10:36:00;;;;;;;53.63;49.23;;;;;;;12.52;100.00;102560.34;5032200;28;20459;-47
2022/11/11 10:38:35;;;;;;;52.60;48.70;;;;;;;12.60;100.00;102559.53;5032664;28;20428;-45
2022/11/11 10:41:12;;;;;;;53.30;48.33;;;;;;;12.64;100.00;102558.19;5032647;28;20676;-45
2022/11/11 10:43:39;;;;;;;56.03;51.37;;;;;;;12.68;100.00;102562.19;5032455;28;20419;-46
2022/11/11 10:46:11;;;;;;;51.63;47.53;;;;;;;12.69;100.00;102545.97;5031944;28;20490;-45
2022/11/11 10:48:49;;;;;;;51.40;47.03;;;;;;;12.71;100.00;102557.34;5032566;28;20852;-49
2022/11/11 10:51:18;;;;;;;52.10;47.30;;;;;;;12.75;100.00;102542.63;5032249;28;20539;-43
2022/11/11 10:53:54;;;;;;;51.07;47.43;;;;;;;12.77;100.00;102556.69;5032211;28;20474;-46
2022/11/11 10:56:29;;;;;;;50.67;46.20;;;;;;;12.84;100.00;102564.06;5031665;28;20518;-44
2022/11/11 10:59:02;;;;;;;51.70;47.47;;;;;;;12.91;100.00;102557.00;5032432;28;20428;-46
2022/11/11 11:01:36;;;;;;;52.67;48.90;;;;;;;12.91;100.00;102565.03;5031974;28;20897;-47
2022/11/11 11:04:11;;;;;;;50.57;46.20;;;;;;;12.89;100.00;102570.59;5032078;28;20972;-44
2022/11/11 11:06:42;;;;;;;52.63;47.30;;;;;;;12.93;100.00;102569.22;5031930;28;20441;-45
2022/11/11 11:09:17;;;;;;;50.30;45.80;;;;;;;12.90;100.00;102577.63;5032028;28;20475;-46
2022/11/11 11:11:52;;;;;;;50.63;46.60;;;;;;;12.94;100.00;102564.72;5031995;28;20427;-46
2022/11/11 11:14:24;;;;;;;51.37;47.17;;;;;;;12.98;100.00;102579.44;5031673;28;20423;-44
2022/11/11 11:16:55;;;;;;;51.30;47.07;;;;;;;12.97;100.00;102577.75;5031916;28;20458;-47
2022/11/11 11:19:26;;;;;;;52.07;48.07;;;;;;;12.95;100.00;102579.78;5031845;28;20522;-45
2022/11/11 11:21:55;;;;;;;51.40;47.47;;;;;;;12.97;100.00;102583.13;5021896;28;20433;-44
2022/11/11 11:24:25;;;;;;;50.97;45.97;;;;;;;12.99;100.00;102581.94;5028572;28;20471;-45
2022/11/11 11:26:55;;;;;;;52.13;47.83;;;;;;;12.97;100.00;102588.47;5031833;28;20510;-46
2022/11/11 11:29:28;;;;;;;50.33;46.50;;;;;;;12.97;100.00;102593.81;5031735;28;20463;-45
2022/11/11 11:31:58;;;;;;;50.70;46.90;;;;;;;12.95;100.00;102596.69;5031627;28;20427;-44
2022/11/11 11:34:44;;;;;;;50.17;46.33;;;;;;;12.96;100.00;102586.81;5030971;28;20432;-46
2022/11/11 11:37:12;;;;;;;50.80;46.63;;;;;;;12.99;100.00;102592.66;5031895;28;20483;-44
2022/11/11 11:39:40;;;;;;;49.93;46.13;;;;;;;13.01;100.00;102588.00;5031723;28;20440;-46
2022/11/11 11:42:09;;;;;;;51.83;47.77;;;;;;;12.97;100.00;102593.81;5031528;28;20444;-46
2022/11/11 11:44:38;;;;;;;49.10;45.30;;;;;;;13.01;100.00;102597.84;5031021;28;20522;-46
2022/11/11 11:47:27;;;;;;;52.17;47.57;;;;;;;12.97;100.00;102599.19;5031529;28;20460;-44
2022/11/11 11:50:17;;;;;;;48.43;44.00;;;;;;;12.97;100.00;102607.22;5031625;28;20444;-44
2022/11/11 11:52:57;;;;;;;49.43;45.30;;;;;;;12.97;100.00;102610.75;5031265;28;20995;-44
2022/11/11 11:55:28;;;;;;;50.73;46.53;;;;;;;12.92;100.00;102610.41;5031256;28;20513;-45
2022/11/11 11:58:15;;;;;;;48.70;45.10;;;;;;;12.86;100.00;102610.25;5031812;28;20510;-49
2022/11/11 12:00:51;;;;;;;51.67;47.50;;;;;;;12.75;100.00;102609.53;5031613;28;20864;-48
2022/11/11 12:03:37;;;;;;;52.40;48.03;;;;;;;12.75;100.00;102612.22;5031670;28;20758;-46
2022/11/11 12:06:16;;;;;;;51.67;47.40;;;;;;;12.75;100.00;102612.22;5030791;28;20530;-43
2022/11/11 12:09:05;;;;;;;51.47;46.87;;;;;;;12.76;100.00;102610.38;5031614;28;20459;-45
2022/11/11 12:11:40;;;;;;;51.17;46.87;;;;;;;12.75;100.00;102606.88;5031242;28;20463;-43
2022/11/11 12:14:29;;;;;;;51.20;46.60;;;;;;;12.74;100.00;102615.91;5031590;28;20432;-47
2022/11/11 12:17:02;;;;;;;50.77;46.50;;;;;;;12.69;100.00;102612.88;5031161;28;20783;-45
2022/11/11 12:19:42;;;;;;;49.87;45.40;;;;;;;12.64;100.00;102617.06;5031323;28;20435;-45
2022/11/11 12:22:25;;;;;;;51.90;46.87;;;;;;;12.63;100.00;102610.88;5015063;28;20834;-44
2022/11/11 12:24:58;;;;;;;51.90;46.70;;;;;;;12.62;100.00;102614.56;4991821;28;20481;-45
2022/11/11 12:27:35;;;;;;;50.93;46.43;;;;;;;12.59;100.00;102622.06;4991965;28;20512;-44
2022/11/11 12:30:08;;;;;;;51.33;47.10;;;;;;;12.61;100.00;102620.06;4991907;28;20441;-48
2022/11/11 12:33:05;;;;;;;53.97;48.90;;;;;;;12.64;100.00;102627.75;4991824;28;20411;-45
2022/11/11 12:35:46;;;;;;;51.60;46.73;;;;;;;12.67;100.00;102619.41;4991564;28;20520;-43
2022/11/11 12:38:30;;;;;;;51.73;47.73;;;;;;;12.69;100.00;102615.56;4991944;28;20491;-44
2022/11/11 12:41:07;;;;;;;52.13;46.67;;;;;;;12.69;100.00;102620.91;4991924;28;20909;-45
2022/11/11 12:43:46;;;;;;;51.70;47.10;;;;;;;12.71;100.00;102613.56;4995401;28;20495;-45
2022/11/11 12:46:23;;;;;;;51.33;46.80;;;;;;;12.69;100.00;102618.22;5013004;28;20535;-43
2022/11/11 12:49:00;;;;;;;53.70;48.90;;;;;;;12.69;100.00;102625.47;5015694;28;20432;-46